createdAt,value
2022-12-19T00:02:01.224Z,4.51
2022-12-19T00:04:29.756Z,4.47
2022-12-19T00:06:59.629Z,4.48
2022-12-19T00:09:28.754Z,4.46
2022-12-19T00:11:57.128Z,4.43
2022-12-19T00:14:25.490Z,4.41
2022-12-19T00:16:55.186Z,4.38
2022-12-19T00:19:25.512Z,4.36
2022-12-19T00:21:53.861Z,4.33
2022-12-19T00:24:22.251Z,4.32
2022-12-19T00:26:50.899Z,4.30
2022-12-19T00:29:19.371Z,4.28
2022-12-19T00:31:47.896Z,4.29
2022-12-19T00:34:16.370Z,4.28
2022-12-19T00:36:46.141Z,4.31
2022-12-19T00:39:14.528Z,4.33
2022-12-19T00:41:43.655Z,4.34
2022-12-19T00:44:15.020Z,4.36
2022-12-19T00:46:51.035Z,4.39
2022-12-19T00:49:22.128Z,4.41
2022-12-19T00:51:51.844Z,4.41
2022-12-19T00:54:20.321Z,4.40
2022-12-19T00:56:48.938Z,4.40
2022-12-19T00:59:18.895Z,4.37
2022-12-19T01:01:55.429Z,4.36
2022-12-19T01:04:28.625Z,4.34
2022-12-19T01:07:01.843Z,4.31
2022-12-19T01:09:30.738Z,4.30
2022-12-19T01:12:16.518Z,4.30
2022-12-19T01:14:44.895Z,4.27
2022-12-19T01:17:13.472Z,4.26
2022-12-19T01:19:44.440Z,4.25
2022-12-19T01:22:15.008Z,4.24
2022-12-19T01:24:43.562Z,4.23
2022-12-19T01:27:12.339Z,4.23
2022-12-19T01:29:52.178Z,4.25
2022-12-19T01:32:23.347Z,4.25
2022-12-19T01:34:51.707Z,4.26
2022-12-19T01:37:21.858Z,4.26
2022-12-19T01:39:50.392Z,4.28
2022-12-19T01:42:23.057Z,4.28
2022-12-19T01:45:32.045Z,4.27
2022-12-19T01:48:21.623Z,4.27
2022-12-19T01:51:01.739Z,4.28
2022-12-19T01:53:48.756Z,4.30
2022-12-19T01:56:23.687Z,4.31
2022-12-19T01:59:05.978Z,4.32
2022-12-19T02:01:36.375Z,4.33
2022-12-19T02:04:21.047Z,4.34
2022-12-19T02:06:51.084Z,4.36
2022-12-19T02:09:21.460Z,4.37
2022-12-19T02:11:49.904Z,4.39
2022-12-19T02:14:18.395Z,4.38
2022-12-19T02:16:56.020Z,4.38
2022-12-19T02:20:22.332Z,4.35
2022-12-19T02:23:16.267Z,4.34
2022-12-19T02:26:14.494Z,4.32
2022-12-19T02:29:10.095Z,4.32
2022-12-19T02:31:49.449Z,4.31
2022-12-19T02:34:27.518Z,4.30
2022-12-19T02:37:01.382Z,4.32
2022-12-19T02:39:37.532Z,4.32
2022-12-19T02:42:10.941Z,4.32
2022-12-19T02:44:46.234Z,4.33
2022-12-19T02:47:16.852Z,4.35
2022-12-19T02:49:45.227Z,4.36
2022-12-19T02:52:50.290Z,4.35
2022-12-19T02:55:25.295Z,4.35
2022-12-19T02:58:30.601Z,4.35
2022-12-19T03:01:07.397Z,4.36
2022-12-19T03:03:47.112Z,4.37
2022-12-19T03:06:25.919Z,4.36
2022-12-19T03:09:03.273Z,4.38
2022-12-19T03:11:37.252Z,4.39
2022-12-19T03:14:09.798Z,4.41
2022-12-19T03:16:39.193Z,4.43
2022-12-19T03:19:14.176Z,4.47
2022-12-19T03:21:46.693Z,4.53
2022-12-19T03:24:16.203Z,4.58
2022-12-19T03:26:51.535Z,4.63
2022-12-19T03:29:26.712Z,4.68
2022-12-19T03:31:57.092Z,4.73
2022-12-19T03:34:31.467Z,4.77
2022-12-19T03:37:05.454Z,4.82
2022-12-19T03:39:35.560Z,4.85
2022-12-19T03:42:23.919Z,4.88
2022-12-19T03:44:54.851Z,4.90
2022-12-19T03:47:32.275Z,4.94
2022-12-19T03:50:02.537Z,4.97
2022-12-19T03:52:40.453Z,5.00
2022-12-19T03:55:18.193Z,5.02
2022-12-19T03:57:55.625Z,5.04
2022-12-19T04:00:25.465Z,5.05
2022-12-19T04:02:58.497Z,5.07
2022-12-19T04:05:30.459Z,5.08
2022-12-19T04:08:03.298Z,5.11
2022-12-19T04:10:33.976Z,5.13
2022-12-19T04:13:07.277Z,5.14
2022-12-19T04:15:46.156Z,5.15
2022-12-19T04:18:16.208Z,5.16
2022-12-19T04:20:53.852Z,5.15
2022-12-19T04:23:30.122Z,5.17
2022-12-19T04:26:03.259Z,5.17
2022-12-19T04:28:37.747Z,5.17
2022-12-19T04:31:07.806Z,5.18
2022-12-19T04:33:36.205Z,5.17
2022-12-19T04:36:06.598Z,5.17
2022-12-19T04:38:35.004Z,5.14
2022-12-19T04:41:03.448Z,5.11
2022-12-19T04:43:31.833Z,5.09
2022-12-19T04:46:00.226Z,5.06
2022-12-19T04:48:28.804Z,5.02
2022-12-19T04:50:57.615Z,4.95
2022-12-19T04:53:27.317Z,4.87
2022-12-19T04:56:02.472Z,4.79
2022-12-19T04:58:31.220Z,4.72
2022-12-19T05:01:03.381Z,4.64
2022-12-19T05:03:32.059Z,4.57
2022-12-19T05:06:08.927Z,4.49
2022-12-19T05:08:41.149Z,4.44
2022-12-19T05:11:14.586Z,4.40
2022-12-19T05:13:47.495Z,4.34
2022-12-19T05:16:16.133Z,4.28
2022-12-19T05:18:45.332Z,4.23
2022-12-19T05:21:14.155Z,4.21
2022-12-19T05:23:44.084Z,4.17
2022-12-19T05:26:13.342Z,4.13
2022-12-19T05:28:42.082Z,4.10
2022-12-19T05:31:13.204Z,4.08
2022-12-19T05:33:43.357Z,4.07
2022-12-19T05:36:13.198Z,4.06
2022-12-19T05:38:43.589Z,4.06
2022-12-19T05:41:19.282Z,4.06
2022-12-19T05:43:52.675Z,4.07
2022-12-19T05:46:21.767Z,4.09
2022-12-19T05:48:50.815Z,4.12
2022-12-19T05:51:20.949Z,4.14
2022-12-19T05:53:50.832Z,4.16
2022-12-19T05:56:21.310Z,4.20
2022-12-19T05:58:51.011Z,4.20
2022-12-19T06:01:22.714Z,4.24
2022-12-19T06:03:51.802Z,4.24
2022-12-19T06:06:22.858Z,4.26
2022-12-19T06:08:57.542Z,4.23
2022-12-19T06:11:26.900Z,4.21
2022-12-19T06:13:55.560Z,4.17
2022-12-19T06:16:25.420Z,4.14
2022-12-19T06:18:53.825Z,4.11
2022-12-19T06:21:24.777Z,4.11
2022-12-19T06:23:55.554Z,4.10
2022-12-19T06:26:24.171Z,4.09
2022-12-19T06:28:53.951Z,4.08
2022-12-19T06:31:24.955Z,4.09
2022-12-19T06:33:53.794Z,4.10
2022-12-19T06:36:24.796Z,4.13
2022-12-19T06:38:57.880Z,4.16
2022-12-19T06:41:44.377Z,4.18
2022-12-19T06:44:15.991Z,4.20
2022-12-19T06:46:45.150Z,4.23
2022-12-19T06:49:13.648Z,4.28
2022-12-19T06:51:42.811Z,4.32
2022-12-19T06:54:13.586Z,4.36
2022-12-19T06:56:44.337Z,4.40
2022-12-19T06:59:15.354Z,4.43
2022-12-19T07:01:57.130Z,4.46
2022-12-19T07:04:32.359Z,4.47
2022-12-19T07:07:00.798Z,4.52
2022-12-19T07:09:31.670Z,4.51
2022-12-19T07:12:00.110Z,4.51
2022-12-19T07:14:28.546Z,4.52
2022-12-19T07:16:59.347Z,4.55
2022-12-19T07:19:28.883Z,4.57
2022-12-19T07:21:57.611Z,4.56
2022-12-19T07:24:26.015Z,4.56
2022-12-19T07:26:55.815Z,4.56
2022-12-19T07:29:24.181Z,4.58
2022-12-19T07:31:52.588Z,4.58
2022-12-19T07:34:21.216Z,4.60
2022-12-19T07:36:52.678Z,4.62
2022-12-19T07:39:21.880Z,4.63
2022-12-19T07:41:50.278Z,4.66
2022-12-19T07:44:20.036Z,4.67
2022-12-19T07:46:48.412Z,4.69
2022-12-19T07:49:22.336Z,4.69
2022-12-19T07:51:51.766Z,4.70
2022-12-19T07:54:20.151Z,4.72
2022-12-19T07:56:48.670Z,4.73
2022-12-19T07:59:17.225Z,4.77
2022-12-19T08:01:47.147Z,4.79
2022-12-19T08:04:15.727Z,4.85
2022-12-19T08:06:44.820Z,4.90
2022-12-19T08:09:13.509Z,4.95
2022-12-19T08:11:41.892Z,4.97
2022-12-19T08:14:10.346Z,5.00
2022-12-19T08:17:03.178Z,5.05
2022-12-19T08:19:28.555Z,5.08
2022-12-19T08:21:57.063Z,5.12
2022-12-19T08:24:25.507Z,5.17
2022-12-19T08:26:53.955Z,5.21
2022-12-19T08:29:22.616Z,5.21
2022-12-19T08:31:51.160Z,5.25
2022-12-19T08:34:19.905Z,5.29
2022-12-19T08:36:49.712Z,5.34
2022-12-19T08:39:18.325Z,5.38
2022-12-19T08:41:46.729Z,5.43
2022-12-19T08:44:15.506Z,5.48
2022-12-19T08:46:49.665Z,5.54
2022-12-19T08:49:19.759Z,5.57
2022-12-19T08:51:50.240Z,5.60
2022-12-19T08:54:18.780Z,5.63
2022-12-19T08:56:47.376Z,5.66
2022-12-19T08:59:23.635Z,5.68
2022-12-19T09:01:59.467Z,5.67
2022-12-19T09:05:09.580Z,5.66
2022-12-19T09:07:18.188Z,5.83
2022-12-19T09:09:46.748Z,5.81
2022-12-19T09:12:17.199Z,5.80
2022-12-19T09:14:45.839Z,5.74
2022-12-19T09:17:14.645Z,5.70
2022-12-19T09:19:45.917Z,5.66
2022-12-19T09:22:17.970Z,5.65
2022-12-19T09:24:46.920Z,5.65
2022-12-19T09:27:15.343Z,5.65
2022-12-19T09:29:44.412Z,5.66
2022-12-19T09:32:13.212Z,5.68
2022-12-19T09:34:41.765Z,5.71
2022-12-19T09:37:16.812Z,5.72
2022-12-19T09:39:48.487Z,5.76
2022-12-19T09:42:52.047Z,5.77
2022-12-19T09:45:43.611Z,5.79
2022-12-19T09:48:24.113Z,5.84
2022-12-19T09:51:09.637Z,5.86
2022-12-19T09:53:54.430Z,5.88
2022-12-19T09:56:30.552Z,5.93
2022-12-19T09:59:13.238Z,5.97
2022-12-19T10:01:55.578Z,5.98
2022-12-19T10:04:27.963Z,5.99
2022-12-19T10:07:21.975Z,5.99
2022-12-19T10:11:56.364Z,5.98
2022-12-19T10:13:00.078Z,6.16
2022-12-19T10:15:44.897Z,6.16
2022-12-19T10:18:39.184Z,6.26
2022-12-19T10:21:12.998Z,6.25
2022-12-19T10:24:11.151Z,6.21
2022-12-19T10:26:46.586Z,6.20
2022-12-19T10:29:57.492Z,6.16
2022-12-19T10:32:37.748Z,6.13
2022-12-19T10:35:16.215Z,6.11
2022-12-19T10:37:52.177Z,6.12
2022-12-19T10:40:29.424Z,6.15
2022-12-19T10:43:10.991Z,6.18
2022-12-19T10:45:49.566Z,6.19
2022-12-19T10:48:27.720Z,6.23
2022-12-19T10:51:00.615Z,6.26
2022-12-19T10:53:35.299Z,6.25
2022-12-19T10:56:14.275Z,6.24
2022-12-19T10:58:45.827Z,6.26
2022-12-19T11:01:23.333Z,6.30
2022-12-19T11:04:23.121Z,6.34
2022-12-19T11:07:05.667Z,6.38
2022-12-19T11:09:40.017Z,6.41
2022-12-19T11:15:45.959Z,6.44
2022-12-19T11:20:45.214Z,6.46
2022-12-19T11:26:24.828Z,6.49
2022-12-19T11:29:27.156Z,6.49
2022-12-19T11:29:38.944Z,6.50
2022-12-19T11:30:41.547Z,6.48
2022-12-19T11:32:43.865Z,6.45
2022-12-19T11:35:24.648Z,6.43
2022-12-19T11:37:57.381Z,6.43
2022-12-19T11:40:34.679Z,6.41
2022-12-19T11:43:43.376Z,6.40
2022-12-19T11:46:04.105Z,6.37
2022-12-19T11:48:41.351Z,6.38
2022-12-19T11:51:23.579Z,6.38
2022-12-19T11:54:03.543Z,6.36
2022-12-19T11:56:31.990Z,6.35
2022-12-19T11:59:04.309Z,6.32
2022-12-19T12:01:53.275Z,6.32
2022-12-19T12:04:49.300Z,6.29
2022-12-19T12:07:42.320Z,6.29
2022-12-19T12:15:37.938Z,6.26
2022-12-19T12:19:44.387Z,6.23
2022-12-19T12:26:24.256Z,6.22
2022-12-19T12:31:20.197Z,6.25
2022-12-19T12:31:28.475Z,6.26
2022-12-19T12:31:56.214Z,6.28
2022-12-19T12:35:16.614Z,6.23
2022-12-19T12:35:52.365Z,6.21
2022-12-19T12:38:34.361Z,6.16
2022-12-19T12:41:20.586Z,6.17
2022-12-19T12:44:08.544Z,6.18
2022-12-19T12:46:41.462Z,6.18
2022-12-19T12:49:33.891Z,6.19
2022-12-19T12:52:04.251Z,6.21
2022-12-19T12:54:39.159Z,6.25
2022-12-19T12:57:07.625Z,6.28
2022-12-19T12:59:36.027Z,6.31
2022-12-19T13:02:18.271Z,6.35
2022-12-19T13:04:59.026Z,6.37
2022-12-19T13:07:42.530Z,6.37
2022-12-19T13:10:26.373Z,6.36
2022-12-19T13:13:14.998Z,6.37
2022-12-19T13:15:46.193Z,6.38
2022-12-19T13:18:35.171Z,6.38
2022-12-19T13:21:08.851Z,6.37
2022-12-19T13:23:49.400Z,6.36
2022-12-19T13:26:52.399Z,6.32
2022-12-19T13:29:35.026Z,6.31
2022-12-19T13:32:16.952Z,6.29
2022-12-19T13:35:28.215Z,6.30
2022-12-19T13:39:50.679Z,6.33
2022-12-19T13:40:59.895Z,6.33
2022-12-19T13:43:48.297Z,6.34
2022-12-19T13:46:41.554Z,6.33
2022-12-19T13:49:16.381Z,6.35
2022-12-19T13:51:49.499Z,6.33
2022-12-19T13:54:24.012Z,6.43
2022-12-19T13:56:54.302Z,6.40
2022-12-19T13:59:27.684Z,6.39
2022-12-19T14:01:56.777Z,6.41
2022-12-19T14:04:31.204Z,6.40
2022-12-19T14:07:04.663Z,6.38
2022-12-19T14:11:32.717Z,6.36
2022-12-19T14:13:46.095Z,6.35
2022-12-19T14:15:45.112Z,6.31
2022-12-19T14:18:42.603Z,6.28
2022-12-19T14:22:11.848Z,6.49
2022-12-19T14:24:18.975Z,6.56
2022-12-19T14:28:23.736Z,6.56
2022-12-19T14:30:28.908Z,6.54
2022-12-19T14:33:53.578Z,6.52
2022-12-19T14:36:10.922Z,6.48
2022-12-19T14:39:20.872Z,6.44
2022-12-19T14:41:42.197Z,6.38
2022-12-19T14:52:25.876Z,6.35
2022-12-19T14:54:06.516Z,6.30
2022-12-19T14:54:25.676Z,6.32
2022-12-19T14:54:30.695Z,6.26
2022-12-19T14:56:16.725Z,6.24
2022-12-19T14:58:53.873Z,6.21
2022-12-19T15:01:26.488Z,6.18
2022-12-19T15:04:47.661Z,6.20
2022-12-19T15:07:08.176Z,6.20
2022-12-19T15:11:02.904Z,6.20
2022-12-19T15:14:48.492Z,6.20
2022-12-19T15:16:05.893Z,6.16
2022-12-19T15:18:42.720Z,6.15
2022-12-19T15:21:14.341Z,6.15
2022-12-19T15:23:45.910Z,6.15
2022-12-19T15:26:18.039Z,6.14
2022-12-19T15:28:51.163Z,6.11
2022-12-19T15:31:32.428Z,6.11
2022-12-19T15:36:49.411Z,6.09
2022-12-19T15:39:19.836Z,6.07
2022-12-19T15:41:51.829Z,6.05
2022-12-19T15:44:27.384Z,6.06
2022-12-19T15:46:56.084Z,6.07
2022-12-19T15:49:24.597Z,6.08
2022-12-19T15:51:53.378Z,6.07
2022-12-19T15:54:48.843Z,6.08
2022-12-19T15:57:25.704Z,6.10
2022-12-19T15:59:54.666Z,6.11
2022-12-19T16:02:42.728Z,6.13
2022-12-19T16:05:16.942Z,6.14
2022-12-19T16:07:46.321Z,6.17
2022-12-19T16:10:17.468Z,6.21
2022-12-19T16:12:49.761Z,6.23
2022-12-19T16:15:26.434Z,6.23
2022-12-19T16:17:55.883Z,6.22
2022-12-19T16:20:26.916Z,6.22
2022-12-19T16:22:56.129Z,6.21
2022-12-19T16:25:33.243Z,6.21
2022-12-19T16:28:03.528Z,6.23
2022-12-19T16:30:34.842Z,6.25
2022-12-19T16:33:03.324Z,6.26
2022-12-19T16:36:03.089Z,6.27
2022-12-19T16:38:22.140Z,6.28
2022-12-19T16:40:53.411Z,6.29
2022-12-19T16:43:29.621Z,6.29
2022-12-19T16:46:01.583Z,6.30
2022-12-19T16:48:31.324Z,6.32
2022-12-19T16:51:00.896Z,6.31
2022-12-19T16:53:29.523Z,6.31
2022-12-19T16:56:00.742Z,6.31
2022-12-19T16:58:30.634Z,6.32
2022-12-19T17:00:59.216Z,6.33
2022-12-19T17:03:36.276Z,6.34
2022-12-19T17:06:05.755Z,6.35
2022-12-19T17:08:34.434Z,6.36
2022-12-19T17:11:04.319Z,6.35
2022-12-19T17:13:33.672Z,6.34
2022-12-19T17:16:02.672Z,6.34
2022-12-19T17:18:35.892Z,6.32
2022-12-19T17:21:04.580Z,6.33
2022-12-19T17:23:33.471Z,6.30
2022-12-19T17:26:03.391Z,6.27
2022-12-19T17:28:32.291Z,6.25
2022-12-19T17:31:05.568Z,6.25
2022-12-19T17:33:37.495Z,6.25
2022-12-19T17:36:08.100Z,6.27
2022-12-19T17:38:37.048Z,6.28
2022-12-19T17:41:07.189Z,6.27
2022-12-19T17:43:35.582Z,6.27
2022-12-19T17:46:04.752Z,6.25
2022-12-19T17:48:34.523Z,6.24
2022-12-19T17:51:04.040Z,6.23
2022-12-19T17:53:32.630Z,6.24
2022-12-19T17:56:01.013Z,6.22
2022-12-19T17:58:30.979Z,6.22
2022-12-19T18:00:59.488Z,6.20
2022-12-19T18:03:28.256Z,6.18
2022-12-19T18:05:57.872Z,6.16
2022-12-19T18:08:29.664Z,6.14
2022-12-19T18:11:00.631Z,6.10
2022-12-19T18:13:32.828Z,6.08
2022-12-19T18:16:04.207Z,6.06
2022-12-19T18:18:37.084Z,6.05
2022-12-19T18:21:06.588Z,6.06
2022-12-19T18:23:35.339Z,6.05
2022-12-19T18:26:03.918Z,6.05
2022-12-19T18:28:34.411Z,6.05
2022-12-19T18:31:11.699Z,6.04
2022-12-19T18:33:42.974Z,6.05
2022-12-19T18:36:20.410Z,6.05
2022-12-19T18:38:49.390Z,6.05
2022-12-19T18:41:19.768Z,6.06
2022-12-19T18:43:50.574Z,6.08
2022-12-19T18:46:25.132Z,6.08
2022-12-19T18:48:53.972Z,6.08
2022-12-19T18:51:24.589Z,6.08
2022-12-19T18:53:53.908Z,6.08
2022-12-19T18:56:22.564Z,6.07
2022-12-19T18:58:52.606Z,6.08
2022-12-19T19:01:23.006Z,6.08
2022-12-19T19:03:56.035Z,6.05
2022-12-19T19:06:28.549Z,6.05
2022-12-19T19:08:58.576Z,6.04
2022-12-19T19:11:29.401Z,6.04
2022-12-19T19:13:59.533Z,6.01
2022-12-19T19:16:29.090Z,5.98
2022-12-19T19:18:59.827Z,5.97
2022-12-19T19:21:33.527Z,5.96
2022-12-19T19:24:08.286Z,5.94
2022-12-19T19:26:38.148Z,5.94
2022-12-19T19:29:10.393Z,5.93
2022-12-19T19:31:41.977Z,5.91
2022-12-19T19:34:17.082Z,5.90
2022-12-19T19:36:49.552Z,5.89
2022-12-19T19:39:19.964Z,5.85
2022-12-19T19:41:48.438Z,5.84
2022-12-19T19:44:18.682Z,5.82
2022-12-19T19:46:47.669Z,5.81
2022-12-19T19:49:16.658Z,5.81
2022-12-19T19:51:45.379Z,5.79
2022-12-19T19:54:13.878Z,5.77
2022-12-19T19:56:43.336Z,5.77
2022-12-19T19:59:12.237Z,5.74
2022-12-19T20:01:42.749Z,5.74
2022-12-19T20:04:11.698Z,5.74
2022-12-19T20:06:41.451Z,5.73
2022-12-19T20:09:10.357Z,5.74
2022-12-19T20:11:38.921Z,5.75
2022-12-19T20:14:07.722Z,5.77
2022-12-19T20:16:38.017Z,5.76
2022-12-19T20:19:07.878Z,5.76
2022-12-19T20:21:36.284Z,5.77
2022-12-19T20:24:05.531Z,5.77
2022-12-19T20:26:34.576Z,5.79
2022-12-19T20:29:04.000Z,5.79
2022-12-19T20:31:32.636Z,5.76
2022-12-19T20:34:02.629Z,5.75
2022-12-19T20:36:32.731Z,5.76
2022-12-19T20:39:02.520Z,5.75
2022-12-19T20:41:31.299Z,5.75
2022-12-19T20:44:00.115Z,5.76
2022-12-19T20:46:29.099Z,5.77
2022-12-19T20:48:59.240Z,5.79
2022-12-19T20:51:27.923Z,5.77
2022-12-19T20:53:57.903Z,5.77
2022-12-19T20:56:26.909Z,5.75
2022-12-19T20:58:55.542Z,5.76
2022-12-19T21:01:26.225Z,5.77
2022-12-19T21:03:54.901Z,5.79
2022-12-19T21:06:27.089Z,5.78
2022-12-19T21:08:59.013Z,5.77
2022-12-19T21:11:27.558Z,5.78
2022-12-19T21:13:56.036Z,5.79
2022-12-19T21:16:25.158Z,5.82
2022-12-19T21:18:53.595Z,5.84
2022-12-19T21:21:24.985Z,5.85
2022-12-19T21:23:54.799Z,5.83
2022-12-19T21:26:27.004Z,5.82
2022-12-19T21:28:57.892Z,5.81
2022-12-19T21:31:29.855Z,5.78
2022-12-19T21:34:01.000Z,5.77
2022-12-19T21:36:31.084Z,5.78
2022-12-19T21:39:01.961Z,5.80
2022-12-19T21:41:33.221Z,5.79
2022-12-19T21:44:01.931Z,5.80
2022-12-19T21:46:33.174Z,5.81
2022-12-19T21:49:02.942Z,5.82
2022-12-19T21:51:33.361Z,5.81
2022-12-19T21:54:04.913Z,5.80
2022-12-19T21:56:38.827Z,5.81
2022-12-19T21:59:11.871Z,5.82
2022-12-19T22:01:41.458Z,5.84
2022-12-19T22:04:14.186Z,5.81
2022-12-19T22:06:42.811Z,5.81
2022-12-19T22:09:15.249Z,5.80
2022-12-19T22:11:46.265Z,5.78
2022-12-19T22:14:16.505Z,5.78
2022-12-19T22:16:45.257Z,5.77
2022-12-19T22:19:17.015Z,5.78
2022-12-19T22:21:46.760Z,5.77
2022-12-19T22:24:17.104Z,5.76
2022-12-19T22:26:46.957Z,5.76
2022-12-19T22:29:18.143Z,5.77
2022-12-19T22:31:47.613Z,5.75
2022-12-19T22:34:18.895Z,5.73
2022-12-19T22:36:48.817Z,5.72
2022-12-19T22:39:20.019Z,5.70
2022-12-19T22:41:50.152Z,5.71
2022-12-19T22:44:21.571Z,5.69
2022-12-19T22:46:51.167Z,5.68
2022-12-19T22:49:19.728Z,5.67
2022-12-19T22:51:48.327Z,5.68
2022-12-19T22:54:16.787Z,5.66
2022-12-19T22:56:45.319Z,5.63
2022-12-19T22:59:15.102Z,5.61
2022-12-19T23:01:45.143Z,5.59
2022-12-19T23:04:16.604Z,5.55
2022-12-19T23:06:45.631Z,5.52
2022-12-19T23:09:17.180Z,5.50
2022-12-19T23:11:48.850Z,5.49
2022-12-19T23:14:20.497Z,5.46
2022-12-19T23:16:49.667Z,5.44
2022-12-19T23:19:18.795Z,5.43
2022-12-19T23:21:47.349Z,5.41
2022-12-19T23:24:15.984Z,5.41
2022-12-19T23:26:44.636Z,5.40
2022-12-19T23:29:15.692Z,5.40
2022-12-19T23:31:48.139Z,5.38
2022-12-19T23:34:17.565Z,5.38
2022-12-19T23:37:10.182Z,5.39
2022-12-19T23:39:34.812Z,5.39
2022-12-19T23:42:03.269Z,5.38
2022-12-19T23:44:31.752Z,5.38
2022-12-19T23:47:03.711Z,5.38
2022-12-19T23:49:33.244Z,5.39
2022-12-19T23:52:01.676Z,5.36
2022-12-19T23:54:30.192Z,5.35
2022-12-19T23:56:58.621Z,5.35
2022-12-19T23:59:27.154Z,5.33
